createdAt,value
2022-09-14T00:01:26.255Z,12.70
2022-09-14T00:04:01.714Z,12.70
2022-09-14T00:06:30.436Z,12.70
2022-09-14T00:09:00.711Z,12.80
2022-09-14T00:11:30.210Z,12.80
2022-09-14T00:13:58.488Z,12.70
2022-09-14T00:16:28.517Z,12.60
2022-09-14T00:19:00.922Z,12.60
2022-09-14T00:21:28.364Z,12.60
2022-09-14T00:23:55.183Z,12.50
2022-09-14T00:26:24.264Z,12.50
2022-09-14T00:28:54.447Z,12.50
2022-09-14T00:31:22.239Z,12.60
2022-09-14T00:33:51.066Z,12.60
2022-09-14T00:36:24.509Z,12.60
2022-09-14T00:38:52.490Z,12.60
2022-09-14T00:41:22.209Z,12.50
2022-09-14T00:43:59.722Z,12.40
2022-09-14T00:46:29.589Z,12.40
2022-09-14T00:48:59.814Z,12.40
2022-09-14T00:51:29.840Z,12.30
2022-09-14T00:53:56.947Z,12.20
2022-09-14T00:56:23.963Z,12.10
2022-09-14T00:58:53.955Z,12.10
2022-09-14T01:01:21.077Z,12.00
2022-09-14T01:03:48.144Z,11.90
2022-09-14T01:06:18.438Z,11.80
2022-09-14T01:09:05.228Z,11.70
2022-09-14T01:11:51.753Z,11.70
2022-09-14T01:14:41.868Z,11.60
2022-09-14T01:17:16.034Z,11.50
2022-09-14T01:20:07.825Z,11.40
2022-09-14T01:22:51.136Z,11.30
2022-09-14T01:25:37.611Z,11.30
2022-09-14T01:28:14.819Z,11.30
2022-09-14T01:30:44.135Z,11.30
2022-09-14T01:33:23.258Z,11.30
2022-09-14T01:35:57.904Z,11.40
2022-09-14T01:38:31.906Z,11.40
2022-09-14T01:41:02.807Z,11.30
2022-09-14T01:43:36.559Z,11.20
2022-09-14T01:46:26.743Z,11.00
2022-09-14T01:49:14.403Z,10.90
2022-09-14T01:52:13.012Z,10.80
2022-09-14T01:54:47.366Z,10.70
2022-09-14T01:57:22.549Z,10.60
2022-09-14T01:59:54.164Z,10.60
2022-09-14T02:02:48.445Z,10.60
2022-09-14T02:05:29.744Z,10.50
2022-09-14T02:07:59.459Z,10.50
2022-09-14T02:10:26.730Z,10.60
2022-09-14T02:12:54.682Z,10.60
2022-09-14T02:15:23.093Z,10.50
2022-09-14T02:17:50.204Z,10.40
2022-09-14T02:20:45.741Z,10.30
2022-09-14T02:23:12.795Z,10.10
2022-09-14T02:25:42.789Z,10.10
2022-09-14T02:28:09.632Z,10.10
2022-09-14T02:30:54.419Z,10.10
2022-09-14T02:33:49.793Z,10.20
2022-09-14T02:36:33.147Z,10.30
2022-09-14T02:39:30.958Z,10.30
2022-09-14T02:42:04.756Z,10.30
2022-09-14T02:44:44.108Z,10.30
2022-09-14T02:47:36.983Z,10.30
2022-09-14T02:50:13.503Z,10.30
2022-09-14T02:52:53.866Z,10.30
2022-09-14T02:55:23.972Z,10.40
2022-09-14T02:58:14.175Z,10.40
2022-09-14T03:00:48.022Z,10.40
2022-09-14T03:03:19.235Z,10.40
2022-09-14T03:05:47.099Z,10.40
2022-09-14T03:08:14.574Z,10.40
2022-09-14T03:10:44.938Z,10.40
2022-09-14T03:13:12.185Z,10.40
2022-09-14T03:15:39.480Z,10.50
2022-09-14T03:18:11.107Z,10.50
2022-09-14T03:20:40.573Z,10.50
2022-09-14T03:23:09.186Z,10.50
2022-09-14T03:25:39.265Z,10.40
2022-09-14T03:28:06.827Z,10.30
2022-09-14T03:30:36.872Z,10.30
2022-09-14T03:33:04.279Z,10.30
2022-09-14T03:35:32.112Z,10.20
2022-09-14T03:37:59.764Z,10.20
2022-09-14T03:40:27.890Z,10.20
2022-09-14T03:42:54.911Z,10.20
2022-09-14T03:45:22.128Z,10.30
2022-09-14T03:47:49.592Z,10.30
2022-09-14T03:50:18.691Z,10.40
2022-09-14T03:52:45.770Z,10.40
2022-09-14T03:55:14.551Z,10.40
2022-09-14T03:57:41.496Z,10.40
2022-09-14T04:00:11.120Z,10.40
2022-09-14T04:02:40.866Z,10.30
2022-09-14T04:05:08.083Z,10.30
2022-09-14T04:07:37.064Z,10.30
2022-09-14T04:10:05.748Z,10.30
2022-09-14T04:12:39.485Z,10.30
2022-09-14T04:15:07.724Z,10.40
2022-09-14T04:17:35.336Z,10.40
2022-09-14T04:20:03.487Z,10.40
2022-09-14T04:22:32.652Z,10.30
2022-09-14T04:24:59.590Z,10.30
2022-09-14T04:27:26.556Z,10.20
2022-09-14T04:29:53.527Z,10.20
2022-09-14T04:32:20.884Z,10.20
2022-09-14T04:34:49.040Z,10.20
2022-09-14T04:37:15.799Z,10.00
2022-09-14T04:39:43.591Z,10.00
2022-09-14T04:42:10.723Z,10.00
2022-09-14T04:44:37.574Z,9.90
2022-09-14T04:47:04.612Z,9.90
2022-09-14T04:49:32.465Z,9.70
2022-09-14T04:51:59.275Z,9.60
2022-09-14T04:54:26.080Z,9.60
2022-09-14T04:56:53.003Z,9.60
2022-09-14T04:59:19.864Z,9.50
2022-09-14T05:01:49.851Z,9.40
2022-09-14T05:04:17.062Z,9.40
2022-09-14T05:06:44.439Z,9.40
2022-09-14T05:09:14.599Z,9.30
2022-09-14T05:11:42.552Z,9.20
2022-09-14T05:14:11.982Z,9.10
2022-09-14T05:16:40.730Z,9.20
2022-09-14T05:19:10.812Z,9.10
2022-09-14T05:21:38.251Z,9.10
2022-09-14T05:24:14.580Z,9.10
2022-09-14T05:26:43.869Z,9.20
2022-09-14T05:29:13.998Z,9.20
2022-09-14T05:31:41.069Z,9.20
2022-09-14T05:34:10.133Z,9.30
2022-09-14T05:36:38.154Z,9.30
2022-09-14T05:39:05.877Z,9.30
2022-09-14T05:41:33.027Z,9.30
2022-09-14T05:44:00.691Z,9.40
2022-09-14T05:46:27.898Z,9.40
2022-09-14T05:48:55.907Z,9.50
2022-09-14T05:51:24.786Z,9.50
2022-09-14T05:53:53.672Z,9.50
2022-09-14T05:56:22.234Z,9.60
2022-09-14T05:58:49.330Z,9.60
2022-09-14T06:01:28.866Z,9.60
2022-09-14T06:03:57.753Z,9.60
2022-09-14T06:06:25.102Z,9.70
2022-09-14T06:08:54.202Z,9.80
2022-09-14T06:11:24.904Z,9.90
2022-09-14T06:13:51.902Z,9.90
2022-09-14T06:16:21.122Z,10.10
2022-09-14T06:18:48.874Z,10.20
2022-09-14T06:21:17.377Z,10.30
2022-09-14T06:23:44.670Z,10.30
2022-09-14T06:26:12.584Z,10.50
2022-09-14T06:28:39.825Z,10.60
2022-09-14T06:31:07.855Z,10.80
2022-09-14T06:33:38.230Z,10.90
2022-09-14T06:36:14.224Z,11.10
2022-09-14T06:38:42.688Z,11.20
2022-09-14T06:41:13.457Z,11.40
2022-09-14T06:43:41.823Z,11.50
2022-09-14T06:46:15.304Z,11.60
2022-09-14T06:48:45.747Z,11.80
2022-09-14T06:51:21.613Z,11.80
2022-09-14T06:53:49.508Z,11.60
2022-09-14T06:56:18.117Z,11.60
2022-09-14T06:58:45.052Z,11.60
2022-09-14T07:01:15.318Z,11.80
2022-09-14T07:03:44.020Z,12.00
2022-09-14T07:06:14.474Z,12.30
2022-09-14T07:08:41.781Z,12.50
2022-09-14T07:11:11.033Z,12.70
2022-09-14T07:13:38.226Z,12.90
2022-09-14T07:16:05.814Z,13.10
2022-09-14T07:18:33.093Z,13.20
2022-09-14T07:21:09.328Z,13.40
2022-09-14T07:23:38.435Z,13.50
2022-09-14T07:26:11.664Z,13.70
2022-09-14T07:28:39.565Z,13.90
2022-09-14T07:31:21.877Z,14.10
2022-09-14T07:33:53.505Z,14.30
2022-09-14T07:36:22.501Z,14.50
2022-09-14T07:38:52.667Z,14.60
2022-09-14T07:41:21.627Z,14.60
2022-09-14T07:43:52.869Z,14.50
2022-09-14T07:46:22.688Z,14.60
2022-09-14T07:48:58.732Z,14.70
2022-09-14T07:51:26.428Z,14.80
2022-09-14T07:53:53.505Z,14.90
2022-09-14T07:56:21.816Z,15.00
2022-09-14T07:58:55.430Z,15.10
2022-09-14T08:01:26.143Z,15.30
2022-09-14T08:03:53.036Z,15.50
2022-09-14T08:06:22.427Z,15.60
2022-09-14T08:08:52.840Z,15.70
2022-09-14T08:11:30.961Z,15.90
2022-09-14T08:14:01.170Z,16.00
2022-09-14T08:16:29.967Z,16.10
2022-09-14T08:18:59.510Z,16.20
2022-09-14T08:21:27.920Z,16.30
2022-09-14T08:23:55.456Z,16.40
2022-09-14T08:26:24.133Z,16.40
2022-09-14T08:28:52.187Z,16.50
2022-09-14T08:31:23.090Z,16.40
2022-09-14T08:34:02.617Z,16.50
2022-09-14T08:36:35.719Z,16.60
2022-09-14T08:39:03.088Z,16.60
2022-09-14T08:41:44.970Z,16.60
2022-09-14T08:44:11.824Z,16.60
2022-09-14T08:46:50.570Z,16.70
2022-09-14T08:49:46.547Z,16.80
2022-09-14T08:52:41.192Z,16.90
2022-09-14T08:55:33.895Z,17.10
2022-09-14T08:58:03.768Z,17.20
2022-09-14T09:00:51.309Z,17.10
2022-09-14T09:03:24.075Z,17.10
2022-09-14T09:06:16.788Z,17.10
2022-09-14T09:08:55.510Z,17.20
2022-09-14T09:11:27.230Z,17.20
2022-09-14T09:13:55.786Z,17.20
2022-09-14T09:16:26.051Z,17.30
2022-09-14T09:19:11.061Z,17.30
2022-09-14T09:21:46.037Z,17.40
2022-09-14T09:24:37.288Z,17.60
2022-09-14T09:27:13.979Z,17.60
2022-09-14T09:29:41.035Z,17.70
2022-09-14T09:32:20.923Z,17.60
2022-09-14T09:34:56.636Z,17.60
2022-09-14T09:37:46.637Z,17.60
2022-09-14T09:40:38.089Z,17.50
2022-09-14T09:43:08.955Z,17.50
2022-09-14T09:46:07.001Z,17.50
2022-09-14T09:48:45.256Z,17.50
2022-09-14T09:51:24.226Z,17.50
2022-09-14T09:53:54.120Z,17.60
2022-09-14T09:56:25.971Z,17.70
2022-09-14T09:58:53.034Z,17.80
2022-09-14T10:01:35.832Z,18.00
2022-09-14T10:04:14.655Z,18.10
2022-09-14T10:06:44.191Z,18.10
2022-09-14T10:09:24.141Z,18.10
2022-09-14T10:12:02.613Z,18.00
2022-09-14T10:14:35.561Z,17.80
2022-09-14T10:17:21.346Z,17.70
2022-09-14T10:19:54.026Z,17.50
2022-09-14T10:22:30.067Z,17.30
2022-09-14T10:24:57.134Z,17.30
2022-09-14T10:27:39.805Z,17.40
2022-09-14T10:30:15.598Z,17.50
2022-09-14T10:33:06.221Z,17.60
2022-09-14T10:35:59.332Z,17.70
2022-09-14T10:38:46.599Z,17.80
2022-09-14T10:41:31.609Z,18.00
2022-09-14T10:44:02.378Z,17.90
2022-09-14T10:47:05.099Z,17.80
2022-09-14T10:49:41.052Z,17.60
2022-09-14T10:52:31.612Z,17.50
2022-09-14T10:55:32.237Z,17.50
2022-09-14T10:58:04.944Z,17.60
2022-09-14T11:00:51.906Z,17.50
2022-09-14T11:03:52.033Z,17.40
2022-09-14T11:06:45.849Z,17.20
2022-09-14T11:09:26.623Z,17.00
2022-09-14T11:12:19.419Z,17.00
2022-09-14T11:15:35.757Z,17.10
2022-09-14T11:18:24.538Z,17.40
2022-09-14T11:20:57.427Z,17.70
2022-09-14T11:23:43.979Z,17.90
2022-09-14T11:26:16.599Z,17.90
2022-09-14T11:29:03.023Z,17.80
2022-09-14T11:31:38.770Z,17.60
2022-09-14T11:34:33.066Z,17.50
2022-09-14T11:37:19.193Z,17.50
2022-09-14T11:39:58.602Z,17.40
2022-09-14T11:42:44.361Z,17.40
2022-09-14T11:45:20.966Z,17.40
2022-09-14T11:48:41.974Z,17.60
2022-09-14T11:51:15.522Z,17.90
2022-09-14T11:53:44.792Z,18.30
2022-09-14T11:56:26.455Z,18.60
2022-09-14T11:58:56.383Z,18.60
2022-09-14T12:01:28.634Z,18.60
2022-09-14T12:04:01.484Z,18.50
2022-09-14T12:06:35.696Z,18.50
2022-09-14T12:09:20.112Z,18.60
2022-09-14T12:11:49.830Z,18.70
2022-09-14T12:14:29.647Z,18.90
2022-09-14T12:17:39.462Z,19.00
2022-09-14T12:20:38.748Z,19.10
2022-09-14T12:23:32.013Z,19.40
2022-09-14T12:26:11.308Z,19.40
2022-09-14T12:28:40.094Z,19.50
2022-09-14T12:31:09.232Z,19.60
2022-09-14T12:33:42.632Z,19.50
2022-09-14T12:36:14.614Z,19.40
2022-09-14T12:39:03.122Z,19.20
2022-09-14T12:41:36.210Z,19.10
2022-09-14T12:44:05.348Z,19.10
2022-09-14T12:46:38.604Z,19.20
2022-09-14T12:49:25.389Z,19.10
2022-09-14T12:51:52.677Z,19.00
2022-09-14T12:54:50.543Z,18.70
2022-09-14T12:57:39.706Z,18.40
2022-09-14T13:00:20.038Z,18.40
2022-09-14T13:03:01.243Z,18.40
2022-09-14T13:05:31.970Z,18.30
2022-09-14T13:07:59.911Z,18.10
2022-09-14T13:10:39.766Z,17.90
2022-09-14T13:13:16.639Z,17.80
2022-09-14T13:15:55.775Z,17.70
2022-09-14T13:18:22.851Z,17.50
2022-09-14T13:20:52.334Z,17.40
2022-09-14T13:23:24.343Z,17.40
2022-09-14T13:25:51.391Z,17.60
2022-09-14T13:28:20.190Z,17.80
2022-09-14T13:30:58.431Z,18.10
2022-09-14T13:33:25.777Z,18.30
2022-09-14T13:35:55.250Z,18.60
2022-09-14T13:38:36.813Z,18.70
2022-09-14T13:41:15.085Z,18.70
2022-09-14T13:43:47.302Z,18.80
2022-09-14T13:46:20.129Z,19.00
2022-09-14T13:48:47.609Z,19.20
2022-09-14T13:51:16.024Z,19.30
2022-09-14T13:54:15.770Z,19.30
2022-09-14T13:56:42.845Z,19.00
2022-09-14T13:59:12.707Z,18.90
2022-09-14T14:02:00.876Z,18.70
2022-09-14T14:04:37.171Z,18.60
2022-09-14T14:07:14.429Z,18.50
2022-09-14T14:10:03.688Z,18.60
2022-09-14T14:12:39.323Z,18.60
2022-09-14T14:15:27.140Z,18.60
2022-09-14T14:17:55.537Z,18.50
2022-09-14T14:20:37.199Z,18.40
2022-09-14T14:23:13.003Z,18.40
2022-09-14T14:25:52.020Z,18.50
2022-09-14T14:28:23.169Z,18.70
2022-09-14T14:30:52.502Z,18.90
2022-09-14T14:33:21.232Z,19.10
2022-09-14T14:35:53.764Z,19.20
2022-09-14T14:38:23.419Z,19.10
2022-09-14T14:40:52.430Z,19.00
2022-09-14T14:43:24.919Z,18.90
2022-09-14T14:45:58.974Z,18.90
2022-09-14T14:48:26.919Z,18.80
2022-09-14T14:50:55.573Z,18.60
2022-09-14T14:53:25.919Z,18.40
2022-09-14T14:55:54.281Z,18.30
2022-09-14T14:58:21.932Z,18.30
2022-09-14T15:00:49.377Z,18.30
2022-09-14T15:03:17.348Z,18.20
2022-09-14T15:05:45.747Z,18.00
2022-09-14T15:08:15.356Z,17.90
2022-09-14T15:10:42.689Z,18.00
2022-09-14T15:13:12.261Z,17.90
2022-09-14T15:15:41.896Z,17.90
2022-09-14T15:18:08.922Z,17.80
2022-09-14T15:20:35.828Z,17.70
2022-09-14T15:23:02.890Z,17.70
2022-09-14T15:25:29.874Z,17.80
2022-09-14T15:27:56.829Z,18.00
2022-09-14T15:30:23.704Z,18.20
2022-09-14T15:32:51.092Z,18.20
2022-09-14T15:35:18.044Z,18.30
2022-09-14T15:37:47.441Z,18.40
2022-09-14T15:40:14.428Z,18.40
2022-09-14T15:42:42.605Z,18.30
2022-09-14T15:45:11.330Z,18.20
2022-09-14T15:47:38.266Z,18.10
2022-09-14T15:50:06.093Z,18.10
2022-09-14T15:52:36.040Z,18.20
2022-09-14T15:55:07.438Z,18.10
2022-09-14T15:57:36.102Z,18.10
2022-09-14T16:00:07.617Z,18.10
2022-09-14T16:02:41.215Z,18.10
2022-09-14T16:05:08.548Z,18.00
2022-09-14T16:07:36.587Z,17.80
2022-09-14T16:10:03.789Z,17.70
2022-09-14T16:12:30.848Z,17.60
2022-09-14T16:14:57.995Z,17.50
2022-09-14T16:17:25.018Z,17.50
2022-09-14T16:19:54.471Z,17.40
2022-09-14T16:22:21.785Z,17.30
2022-09-14T16:24:48.944Z,17.20
2022-09-14T16:27:16.289Z,17.10
2022-09-14T16:29:43.582Z,17.00
2022-09-14T16:32:11.833Z,16.90
2022-09-14T16:34:38.647Z,16.90
2022-09-14T16:37:05.571Z,16.80
2022-09-14T16:39:34.905Z,16.80
2022-09-14T16:42:02.505Z,16.70
2022-09-14T16:44:29.833Z,16.70
2022-09-14T16:46:58.921Z,16.60
2022-09-14T16:49:27.788Z,16.60
2022-09-14T16:51:56.347Z,16.50
2022-09-14T16:54:25.474Z,16.40
2022-09-14T16:56:56.719Z,16.40
2022-09-14T16:59:23.928Z,16.30
2022-09-14T17:01:54.662Z,16.20
2022-09-14T17:04:23.065Z,16.20
2022-09-14T17:06:51.590Z,16.10
2022-09-14T17:09:24.131Z,16.10
2022-09-14T17:11:51.898Z,16.00
2022-09-14T17:14:21.645Z,15.90
2022-09-14T17:16:49.341Z,15.80
2022-09-14T17:19:17.348Z,15.70
2022-09-14T17:21:46.466Z,15.60
2022-09-14T17:24:16.962Z,15.50
2022-09-14T17:26:44.415Z,15.40
2022-09-14T17:29:12.111Z,15.30
2022-09-14T17:31:41.409Z,15.20
2022-09-14T17:34:10.399Z,15.10
2022-09-14T17:36:38.729Z,15.00
2022-09-14T17:39:11.662Z,14.80
2022-09-14T17:41:41.031Z,14.70
2022-09-14T17:44:10.360Z,14.60
2022-09-14T17:46:44.447Z,14.50
2022-09-14T17:49:16.054Z,14.50
2022-09-14T17:51:45.155Z,14.40
2022-09-14T17:54:12.771Z,14.30
2022-09-14T17:56:48.959Z,14.30
2022-09-14T17:59:20.742Z,14.20
2022-09-14T18:01:49.248Z,14.20
2022-09-14T18:04:16.848Z,14.20
2022-09-14T18:06:46.822Z,14.10
2022-09-14T18:09:20.226Z,14.00
2022-09-14T18:11:49.030Z,13.90
2022-09-14T18:14:16.818Z,13.80
2022-09-14T18:16:44.769Z,13.70
2022-09-14T18:19:14.483Z,13.60
2022-09-14T18:21:42.007Z,13.50
2022-09-14T18:24:10.810Z,13.40
2022-09-14T18:26:40.988Z,13.30
2022-09-14T18:29:08.122Z,13.40
2022-09-14T18:31:35.076Z,13.30
2022-09-14T18:34:02.480Z,13.30
2022-09-14T18:36:30.150Z,13.30
2022-09-14T18:39:03.234Z,13.30
2022-09-14T18:41:32.422Z,13.30
2022-09-14T18:44:00.405Z,13.30
2022-09-14T18:46:28.697Z,13.20
2022-09-14T18:48:58.168Z,13.30
2022-09-14T18:51:26.679Z,13.20
2022-09-14T18:54:04.190Z,13.20
2022-09-14T18:56:34.960Z,13.20
2022-09-14T18:59:04.120Z,13.20
2022-09-14T19:01:32.604Z,13.10
2022-09-14T19:04:00.079Z,13.10
2022-09-14T19:06:27.043Z,13.00
2022-09-14T19:08:53.899Z,13.00
2022-09-14T19:11:23.309Z,12.90
2022-09-14T19:13:56.672Z,12.90
2022-09-14T19:16:23.729Z,12.90
2022-09-14T19:18:50.715Z,12.90
2022-09-14T19:21:27.157Z,12.80
2022-09-14T19:24:03.122Z,12.70
2022-09-14T19:26:32.841Z,12.70
2022-09-14T19:29:03.357Z,12.60
2022-09-14T19:31:31.184Z,12.60
2022-09-14T19:33:59.499Z,12.60
2022-09-14T19:36:27.646Z,12.50
2022-09-14T19:38:59.590Z,12.50
2022-09-14T19:41:26.580Z,12.50
2022-09-14T19:43:53.420Z,12.40
2022-09-14T19:46:23.400Z,12.40
2022-09-14T19:48:51.825Z,12.40
2022-09-14T19:51:22.062Z,12.40
2022-09-14T19:53:52.149Z,12.40
2022-09-14T19:56:21.892Z,12.40
2022-09-14T19:58:50.575Z,12.40
2022-09-14T20:01:19.182Z,12.40
2022-09-14T20:03:47.392Z,12.40
2022-09-14T20:06:23.411Z,12.30
2022-09-14T20:08:52.507Z,12.30
2022-09-14T20:11:23.351Z,12.30
2022-09-14T20:13:53.017Z,12.30
2022-09-14T20:16:25.826Z,12.20
2022-09-14T20:18:52.890Z,12.20
2022-09-14T20:21:22.308Z,12.20
2022-09-14T20:24:14.764Z,12.10
2022-09-14T20:26:42.766Z,12.00
2022-09-14T20:29:10.189Z,12.00
2022-09-14T20:31:38.081Z,11.90
2022-09-14T20:34:05.282Z,11.90
2022-09-14T20:36:32.962Z,11.90
2022-09-14T20:39:00.091Z,11.90
2022-09-14T20:41:33.228Z,12.00
2022-09-14T20:44:00.521Z,12.00
2022-09-14T20:46:38.532Z,11.90
2022-09-14T20:49:08.491Z,11.90
2022-09-14T20:51:36.661Z,11.90
2022-09-14T20:54:06.084Z,11.80
2022-09-14T20:56:34.764Z,11.80
2022-09-14T20:59:04.524Z,11.80
2022-09-14T21:01:35.734Z,11.70
2022-09-14T21:04:09.341Z,11.70
2022-09-14T21:06:39.292Z,11.60
2022-09-14T21:09:07.897Z,11.60
2022-09-14T21:11:35.654Z,11.50
2022-09-14T21:14:04.455Z,11.40
2022-09-14T21:16:34.461Z,11.40
2022-09-14T21:19:04.596Z,11.30
2022-09-14T21:21:31.949Z,11.30
2022-09-14T21:24:00.215Z,11.40
2022-09-14T21:26:29.037Z,11.30
2022-09-14T21:28:58.292Z,11.20
2022-09-14T21:31:29.986Z,11.20
2022-09-14T21:33:59.290Z,11.20
2022-09-14T21:36:31.578Z,11.10
2022-09-14T21:38:59.983Z,11.00
2022-09-14T21:41:30.058Z,11.00
2022-09-14T21:43:57.308Z,10.90
2022-09-14T21:46:25.261Z,10.90
2022-09-14T21:48:52.890Z,10.90
2022-09-14T21:51:27.363Z,10.90
2022-09-14T21:53:56.736Z,10.90
2022-09-14T21:56:27.479Z,10.80
2022-09-14T21:58:56.907Z,10.80
2022-09-14T22:01:24.527Z,10.80
2022-09-14T22:03:53.163Z,10.80
2022-09-14T22:06:22.492Z,10.70
2022-09-14T22:08:50.367Z,10.60
2022-09-14T22:11:23.696Z,10.50
2022-09-14T22:13:59.469Z,10.50
2022-09-14T22:16:27.965Z,10.40
2022-09-14T22:18:57.736Z,10.30
2022-09-14T22:21:27.210Z,10.30
2022-09-14T22:23:57.444Z,10.20
2022-09-14T22:26:25.795Z,10.10
2022-09-14T22:28:56.713Z,10.10
2022-09-14T22:31:24.377Z,10.10
2022-09-14T22:33:53.332Z,10.00
2022-09-14T22:36:20.242Z,10.00
2022-09-14T22:38:47.304Z,9.80
2022-09-14T22:41:20.687Z,9.80
2022-09-14T22:43:47.701Z,9.70
2022-09-14T22:46:16.416Z,9.60
2022-09-14T22:48:57.846Z,9.50
2022-09-14T22:51:27.590Z,9.50
2022-09-14T22:53:54.923Z,9.50
2022-09-14T22:56:31.296Z,9.40
2022-09-14T22:58:59.239Z,9.40
2022-09-14T23:01:31.785Z,9.30
2022-09-14T23:04:01.974Z,9.30
2022-09-14T23:06:31.841Z,9.20
2022-09-14T23:09:00.484Z,9.20
2022-09-14T23:11:29.035Z,9.10
2022-09-14T23:13:57.756Z,9.10
2022-09-14T23:16:26.584Z,9.00
2022-09-14T23:18:55.396Z,8.90
2022-09-14T23:21:22.804Z,8.70
2022-09-14T23:23:58.587Z,8.60
2022-09-14T23:26:26.921Z,8.50
2022-09-14T23:28:56.011Z,8.40
2022-09-14T23:31:23.444Z,8.30
2022-09-14T23:33:56.180Z,8.20
2022-09-14T23:36:24.254Z,8.20
2022-09-14T23:38:51.966Z,8.30
2022-09-14T23:41:20.651Z,8.30
2022-09-14T23:43:48.090Z,8.30
2022-09-14T23:46:15.918Z,8.30
2022-09-14T23:48:43.475Z,8.40
2022-09-14T23:51:11.900Z,8.40
2022-09-14T23:53:39.771Z,8.40
2022-09-14T23:56:07.786Z,8.40
2022-09-14T23:58:35.429Z,8.30
